sensor_id;sensor_type;location;lat;lon;timestamp;P1;durP1;ratioP1;P2;durP2;ratioP2
72603;SDS011;60645;56.968;24.196;2022-07-04T00:02:13;1.60;;;0.60;;
72603;SDS011;60645;56.968;24.196;2022-07-04T00:04:40;1.52;;;0.75;;
72603;SDS011;60645;56.968;24.196;2022-07-04T00:07:06;3.40;;;0.52;;
72603;SDS011;60645;56.968;24.196;2022-07-04T00:09:33;1.80;;;0.52;;
72603;SDS011;60645;56.968;24.196;2022-07-04T00:11:59;2.17;;;0.70;;
72603;SDS011;60645;56.968;24.196;2022-07-04T00:14:25;2.58;;;0.80;;
72603;SDS011;60645;56.968;24.196;2022-07-04T00:16:52;2.03;;;0.63;;
72603;SDS011;60645;56.968;24.196;2022-07-04T00:19:18;1.55;;;0.50;;
72603;SDS011;60645;56.968;24.196;2022-07-04T00:21:45;3.00;;;0.90;;
72603;SDS011;60645;56.968;24.196;2022-07-04T00:24:11;2.95;;;1.00;;
72603;SDS011;60645;56.968;24.196;2022-07-04T00:26:38;2.22;;;0.80;;
72603;SDS011;60645;56.968;24.196;2022-07-04T00:29:04;1.60;;;1.00;;
72603;SDS011;60645;56.968;24.196;2022-07-04T00:31:30;2.40;;;0.70;;
72603;SDS011;60645;56.968;24.196;2022-07-04T00:33:57;3.45;;;1.13;;
72603;SDS011;60645;56.968;24.196;2022-07-04T00:36:24;1.38;;;0.90;;
72603;SDS011;60645;56.968;24.196;2022-07-04T00:38:50;2.00;;;0.88;;
72603;SDS011;60645;56.968;24.196;2022-07-04T00:41:16;2.20;;;1.02;;
72603;SDS011;60645;56.968;24.196;2022-07-04T00:43:43;2.35;;;1.20;;
72603;SDS011;60645;56.968;24.196;2022-07-04T00:46:29;2.42;;;0.90;;
72603;SDS011;60645;56.968;24.196;2022-07-04T00:48:56;1.85;;;0.95;;
72603;SDS011;60645;56.968;24.196;2022-07-04T00:51:22;1.80;;;1.20;;
72603;SDS011;60645;56.968;24.196;2022-07-04T00:53:49;1.33;;;1.10;;
72603;SDS011;60645;56.968;24.196;2022-07-04T00:56:16;2.55;;;1.00;;
72603;SDS011;60645;56.968;24.196;2022-07-04T00:58:43;1.88;;;1.20;;
72603;SDS011;60645;56.968;24.196;2022-07-04T01:01:09;3.45;;;0.95;;
72603;SDS011;60645;56.968;24.196;2022-07-04T01:03:35;1.50;;;1.13;;
72603;SDS011;60645;56.968;24.196;2022-07-04T01:06:02;2.45;;;1.20;;
72603;SDS011;60645;56.968;24.196;2022-07-04T01:08:28;2.72;;;1.10;;
72603;SDS011;60645;56.968;24.196;2022-07-04T01:10:55;1.73;;;1.17;;
72603;SDS011;60645;56.968;24.196;2022-07-04T01:13:22;1.92;;;0.98;;
72603;SDS011;60645;56.968;24.196;2022-07-04T01:15:49;3.67;;;1.67;;
72603;SDS011;60645;56.968;24.196;2022-07-04T01:18:17;3.90;;;1.83;;
72603;SDS011;60645;56.968;24.196;2022-07-04T01:20:43;2.80;;;1.80;;
72603;SDS011;60645;56.968;24.196;2022-07-04T01:23:10;2.67;;;1.83;;
72603;SDS011;60645;56.968;24.196;2022-07-04T01:25:36;2.50;;;1.80;;
72603;SDS011;60645;56.968;24.196;2022-07-04T01:28:03;1.95;;;1.30;;
72603;SDS011;60645;56.968;24.196;2022-07-04T01:30:30;1.80;;;1.55;;
72603;SDS011;60645;56.968;24.196;2022-07-04T01:32:56;4.32;;;1.90;;
72603;SDS011;60645;56.968;24.196;2022-07-04T01:35:23;1.92;;;1.30;;
72603;SDS011;60645;56.968;24.196;2022-07-04T01:37:50;3.05;;;1.92;;
72603;SDS011;60645;56.968;24.196;2022-07-04T01:40:16;2.42;;;1.52;;
72603;SDS011;60645;56.968;24.196;2022-07-04T01:42:43;2.15;;;1.50;;
72603;SDS011;60645;56.968;24.196;2022-07-04T01:45:10;2.47;;;1.98;;
72603;SDS011;60645;56.968;24.196;2022-07-04T01:47:36;3.15;;;1.63;;
72603;SDS011;60645;56.968;24.196;2022-07-04T01:50:04;3.40;;;2.13;;
72603;SDS011;60645;56.968;24.196;2022-07-04T01:52:31;2.83;;;1.25;;
72603;SDS011;60645;56.968;24.196;2022-07-04T01:54:57;1.98;;;1.20;;
72603;SDS011;60645;56.968;24.196;2022-07-04T01:57:24;1.90;;;1.30;;
72603;SDS011;60645;56.968;24.196;2022-07-04T01:59:50;3.40;;;1.55;;
72603;SDS011;60645;56.968;24.196;2022-07-04T02:02:35;2.67;;;1.40;;
72603;SDS011;60645;56.968;24.196;2022-07-04T02:05:02;4.53;;;2.08;;
72603;SDS011;60645;56.968;24.196;2022-07-04T02:07:29;4.05;;;2.00;;
72603;SDS011;60645;56.968;24.196;2022-07-04T02:09:55;2.17;;;1.60;;
72603;SDS011;60645;56.968;24.196;2022-07-04T02:12:22;2.85;;;1.13;;
72603;SDS011;60645;56.968;24.196;2022-07-04T02:15:07;2.30;;;1.05;;
72603;SDS011;60645;56.968;24.196;2022-07-04T02:17:33;2.53;;;1.25;;
72603;SDS011;60645;56.968;24.196;2022-07-04T02:20:00;2.60;;;1.40;;
72603;SDS011;60645;56.968;24.196;2022-07-04T02:22:26;2.53;;;1.35;;
72603;SDS011;60645;56.968;24.196;2022-07-04T02:24:53;2.30;;;1.40;;
72603;SDS011;60645;56.968;24.196;2022-07-04T02:27:19;3.55;;;1.42;;
72603;SDS011;60645;56.968;24.196;2022-07-04T02:29:45;2.97;;;1.80;;
72603;SDS011;60645;56.968;24.196;2022-07-04T02:32:12;2.42;;;1.35;;
72603;SDS011;60645;56.968;24.196;2022-07-04T02:34:38;3.63;;;1.70;;
72603;SDS011;60645;56.968;24.196;2022-07-04T02:37:04;3.28;;;2.08;;
72603;SDS011;60645;56.968;24.196;2022-07-04T02:39:31;4.22;;;1.85;;
72603;SDS011;60645;56.968;24.196;2022-07-04T02:41:57;4.78;;;3.20;;
72603;SDS011;60645;56.968;24.196;2022-07-04T02:44:24;4.05;;;2.05;;
72603;SDS011;60645;56.968;24.196;2022-07-04T02:46:50;1.73;;;1.42;;
72603;SDS011;60645;56.968;24.196;2022-07-04T02:49:17;2.85;;;1.55;;
72603;SDS011;60645;56.968;24.196;2022-07-04T02:51:43;3.70;;;1.65;;
72603;SDS011;60645;56.968;24.196;2022-07-04T02:54:10;2.58;;;1.67;;
72603;SDS011;60645;56.968;24.196;2022-07-04T02:56:36;2.17;;;1.40;;
72603;SDS011;60645;56.968;24.196;2022-07-04T02:59:02;2.60;;;1.42;;
72603;SDS011;60645;56.968;24.196;2022-07-04T03:01:29;2.97;;;1.63;;
72603;SDS011;60645;56.968;24.196;2022-07-04T03:03:55;2.40;;;1.25;;
72603;SDS011;60645;56.968;24.196;2022-07-04T03:06:22;2.65;;;1.50;;
72603;SDS011;60645;56.968;24.196;2022-07-04T03:08:48;2.97;;;2.20;;
72603;SDS011;60645;56.968;24.196;2022-07-04T03:11:15;1.65;;;1.55;;
72603;SDS011;60645;56.968;24.196;2022-07-04T03:13:41;4.60;;;2.10;;
72603;SDS011;60645;56.968;24.196;2022-07-04T03:16:08;3.75;;;2.50;;
72603;SDS011;60645;56.968;24.196;2022-07-04T03:18:34;2.92;;;2.72;;
72603;SDS011;60645;56.968;24.196;2022-07-04T03:21:00;3.90;;;2.05;;
72603;SDS011;60645;56.968;24.196;2022-07-04T03:23:27;4.60;;;2.30;;
72603;SDS011;60645;56.968;24.196;2022-07-04T03:25:54;3.58;;;2.55;;
72603;SDS011;60645;56.968;24.196;2022-07-04T03:28:20;4.47;;;1.90;;
72603;SDS011;60645;56.968;24.196;2022-07-04T03:30:46;3.50;;;2.13;;
72603;SDS011;60645;56.968;24.196;2022-07-04T03:33:13;2.65;;;1.95;;
72603;SDS011;60645;56.968;24.196;2022-07-04T03:35:39;2.03;;;1.63;;
72603;SDS011;60645;56.968;24.196;2022-07-04T03:38:06;2.65;;;1.80;;
72603;SDS011;60645;56.968;24.196;2022-07-04T03:40:32;3.05;;;1.90;;
72603;SDS011;60645;56.968;24.196;2022-07-04T03:43:02;3.63;;;2.00;;
72603;SDS011;60645;56.968;24.196;2022-07-04T03:45:28;2.95;;;1.73;;
72603;SDS011;60645;56.968;24.196;2022-07-04T03:47:55;4.13;;;1.90;;
72603;SDS011;60645;56.968;24.196;2022-07-04T03:50:22;2.38;;;1.58;;
72603;SDS011;60645;56.968;24.196;2022-07-04T03:52:50;2.92;;;1.92;;
72603;SDS011;60645;56.968;24.196;2022-07-04T03:55:17;3.60;;;2.10;;
72603;SDS011;60645;56.968;24.196;2022-07-04T03:57:43;3.10;;;2.00;;
72603;SDS011;60645;56.968;24.196;2022-07-04T04:00:09;4.72;;;2.42;;
72603;SDS011;60645;56.968;24.196;2022-07-04T04:02:36;3.38;;;2.05;;
72603;SDS011;60645;56.968;24.196;2022-07-04T04:05:03;4.47;;;2.35;;
72603;SDS011;60645;56.968;24.196;2022-07-04T04:07:48;4.68;;;2.42;;
72603;SDS011;60645;56.968;24.196;2022-07-04T04:10:15;5.05;;;2.08;;
72603;SDS011;60645;56.968;24.196;2022-07-04T04:12:41;4.85;;;3.08;;
72603;SDS011;60645;56.968;24.196;2022-07-04T04:15:08;3.50;;;1.83;;
72603;SDS011;60645;56.968;24.196;2022-07-04T04:17:34;5.40;;;2.80;;
72603;SDS011;60645;56.968;24.196;2022-07-04T04:20:01;5.00;;;2.65;;
72603;SDS011;60645;56.968;24.196;2022-07-04T04:22:28;4.68;;;2.38;;
72603;SDS011;60645;56.968;24.196;2022-07-04T04:24:54;2.05;;;1.75;;
72603;SDS011;60645;56.968;24.196;2022-07-04T04:27:20;4.07;;;2.13;;
72603;SDS011;60645;56.968;24.196;2022-07-04T04:29:47;2.75;;;1.60;;
72603;SDS011;60645;56.968;24.196;2022-07-04T04:32:13;3.60;;;1.35;;
72603;SDS011;60645;56.968;24.196;2022-07-04T04:34:39;3.25;;;1.65;;
72603;SDS011;60645;56.968;24.196;2022-07-04T04:37:06;3.80;;;1.60;;
72603;SDS011;60645;56.968;24.196;2022-07-04T04:39:33;3.20;;;1.80;;
72603;SDS011;60645;56.968;24.196;2022-07-04T04:41:59;2.97;;;1.33;;
72603;SDS011;60645;56.968;24.196;2022-07-04T04:44:25;3.97;;;1.27;;
72603;SDS011;60645;56.968;24.196;2022-07-04T04:46:52;4.50;;;1.33;;
72603;SDS011;60645;56.968;24.196;2022-07-04T04:49:18;3.40;;;1.40;;
72603;SDS011;60645;56.968;24.196;2022-07-04T04:51:45;2.58;;;1.45;;
72603;SDS011;60645;56.968;24.196;2022-07-04T04:54:11;2.78;;;1.48;;
72603;SDS011;60645;56.968;24.196;2022-07-04T04:56:38;3.33;;;1.40;;
72603;SDS011;60645;56.968;24.196;2022-07-04T04:59:04;3.70;;;1.80;;
72603;SDS011;60645;56.968;24.196;2022-07-04T05:01:30;2.90;;;1.27;;
72603;SDS011;60645;56.968;24.196;2022-07-04T05:04:07;4.72;;;1.10;;
72603;SDS011;60645;56.968;24.196;2022-07-04T05:06:34;3.53;;;1.23;;
72603;SDS011;60645;56.968;24.196;2022-07-04T05:09:00;3.17;;;1.40;;
72603;SDS011;60645;56.968;24.196;2022-07-04T05:11:27;2.20;;;1.20;;
72603;SDS011;60645;56.968;24.196;2022-07-04T05:13:53;3.17;;;1.40;;
72603;SDS011;60645;56.968;24.196;2022-07-04T05:16:20;2.28;;;1.20;;
72603;SDS011;60645;56.968;24.196;2022-07-04T05:18:46;3.97;;;1.20;;
72603;SDS011;60645;56.968;24.196;2022-07-04T05:21:12;3.25;;;1.35;;
72603;SDS011;60645;56.968;24.196;2022-07-04T05:23:39;4.80;;;1.10;;
72603;SDS011;60645;56.968;24.196;2022-07-04T05:26:05;2.55;;;1.20;;
72603;SDS011;60645;56.968;24.196;2022-07-04T05:28:32;3.17;;;1.00;;
72603;SDS011;60645;56.968;24.196;2022-07-04T05:30:58;2.63;;;1.13;;
72603;SDS011;60645;56.968;24.196;2022-07-04T05:33:24;1.92;;;1.15;;
72603;SDS011;60645;56.968;24.196;2022-07-04T05:35:51;4.13;;;1.02;;
72603;SDS011;60645;56.968;24.196;2022-07-04T05:38:17;2.55;;;1.15;;
72603;SDS011;60645;56.968;24.196;2022-07-04T05:40:44;2.35;;;1.00;;
72603;SDS011;60645;56.968;24.196;2022-07-04T05:43:10;4.03;;;1.05;;
72603;SDS011;60645;56.968;24.196;2022-07-04T05:45:38;2.67;;;1.00;;
72603;SDS011;60645;56.968;24.196;2022-07-04T05:48:04;2.72;;;1.13;;
72603;SDS011;60645;56.968;24.196;2022-07-04T05:50:31;2.90;;;1.00;;
72603;SDS011;60645;56.968;24.196;2022-07-04T05:52:58;2.70;;;1.05;;
72603;SDS011;60645;56.968;24.196;2022-07-04T05:55:25;2.25;;;1.00;;
72603;SDS011;60645;56.968;24.196;2022-07-04T05:57:51;4.05;;;0.98;;
72603;SDS011;60645;56.968;24.196;2022-07-04T06:00:19;2.70;;;0.90;;
72603;SDS011;60645;56.968;24.196;2022-07-04T06:02:45;2.80;;;1.23;;
72603;SDS011;60645;56.968;24.196;2022-07-04T06:05:12;2.58;;;0.70;;
72603;SDS011;60645;56.968;24.196;2022-07-04T06:07:38;1.75;;;0.82;;
72603;SDS011;60645;56.968;24.196;2022-07-04T06:10:05;3.55;;;0.70;;
72603;SDS011;60645;56.968;24.196;2022-07-04T06:12:32;2.55;;;0.80;;
72603;SDS011;60645;56.968;24.196;2022-07-04T06:14:58;3.15;;;0.73;;
72603;SDS011;60645;56.968;24.196;2022-07-04T06:17:25;2.28;;;0.55;;
72603;SDS011;60645;56.968;24.196;2022-07-04T06:19:51;2.30;;;0.80;;
72603;SDS011;60645;56.968;24.196;2022-07-04T06:22:17;2.80;;;0.90;;
72603;SDS011;60645;56.968;24.196;2022-07-04T06:24:50;3.38;;;0.82;;
72603;SDS011;60645;56.968;24.196;2022-07-04T06:27:16;2.03;;;0.80;;
72603;SDS011;60645;56.968;24.196;2022-07-04T06:29:43;4.00;;;0.68;;
72603;SDS011;60645;56.968;24.196;2022-07-04T06:32:09;2.35;;;0.98;;
72603;SDS011;60645;56.968;24.196;2022-07-04T06:34:35;3.85;;;0.80;;
72603;SDS011;60645;56.968;24.196;2022-07-04T06:37:21;2.10;;;1.00;;
72603;SDS011;60645;56.968;24.196;2022-07-04T06:39:47;4.47;;;1.30;;
72603;SDS011;60645;56.968;24.196;2022-07-04T06:42:14;2.42;;;1.67;;
72603;SDS011;60645;56.968;24.196;2022-07-04T06:44:41;3.17;;;1.00;;
72603;SDS011;60645;56.968;24.196;2022-07-04T06:47:08;3.35;;;1.67;;
72603;SDS011;60645;56.968;24.196;2022-07-04T06:49:34;4.93;;;0.90;;
72603;SDS011;60645;56.968;24.196;2022-07-04T06:52:00;7.00;;;0.80;;
72603;SDS011;60645;56.968;24.196;2022-07-04T06:54:27;2.13;;;0.80;;
72603;SDS011;60645;56.968;24.196;2022-07-04T06:56:53;5.03;;;1.08;;
72603;SDS011;60645;56.968;24.196;2022-07-04T06:59:39;2.17;;;0.73;;
72603;SDS011;60645;56.968;24.196;2022-07-04T07:02:06;2.42;;;0.70;;
72603;SDS011;60645;56.968;24.196;2022-07-04T07:04:32;2.42;;;0.73;;
72603;SDS011;60645;56.968;24.196;2022-07-04T07:06:59;2.50;;;1.40;;
72603;SDS011;60645;56.968;24.196;2022-07-04T07:09:25;2.55;;;0.90;;
72603;SDS011;60645;56.968;24.196;2022-07-04T07:11:52;2.22;;;0.93;;
72603;SDS011;60645;56.968;24.196;2022-07-04T07:14:18;2.55;;;0.73;;
72603;SDS011;60645;56.968;24.196;2022-07-04T07:16:44;3.90;;;1.17;;
72603;SDS011;60645;56.968;24.196;2022-07-04T07:19:11;2.13;;;0.68;;
72603;SDS011;60645;56.968;24.196;2022-07-04T07:21:37;2.35;;;0.90;;
72603;SDS011;60645;56.968;24.196;2022-07-04T07:24:04;3.03;;;0.70;;
72603;SDS011;60645;56.968;24.196;2022-07-04T07:26:30;2.63;;;0.73;;
72603;SDS011;60645;56.968;24.196;2022-07-04T07:28:56;1.75;;;0.80;;
72603;SDS011;60645;56.968;24.196;2022-07-04T07:31:23;3.38;;;0.80;;
72603;SDS011;60645;56.968;24.196;2022-07-04T07:33:49;4.70;;;1.10;;
72603;SDS011;60645;56.968;24.196;2022-07-04T07:36:15;1.45;;;0.50;;
72603;SDS011;60645;56.968;24.196;2022-07-04T07:38:42;2.42;;;1.15;;
72603;SDS011;60645;56.968;24.196;2022-07-04T07:41:09;2.15;;;0.57;;
72603;SDS011;60645;56.968;24.196;2022-07-04T07:43:35;1.80;;;1.20;;
72603;SDS011;60645;56.968;24.196;2022-07-04T07:46:05;1.23;;;0.45;;
72603;SDS011;60645;56.968;24.196;2022-07-04T07:48:33;2.42;;;0.68;;
72603;SDS011;60645;56.968;24.196;2022-07-04T07:51:00;2.08;;;0.63;;
72603;SDS011;60645;56.968;24.196;2022-07-04T07:53:26;2.15;;;0.85;;
72603;SDS011;60645;56.968;24.196;2022-07-04T07:55:53;2.22;;;0.70;;
72603;SDS011;60645;56.968;24.196;2022-07-04T07:58:19;2.28;;;0.80;;
72603;SDS011;60645;56.968;24.196;2022-07-04T08:00:46;2.47;;;0.65;;
72603;SDS011;60645;56.968;24.196;2022-07-04T08:03:22;2.25;;;0.60;;
72603;SDS011;60645;56.968;24.196;2022-07-04T08:06:08;3.28;;;0.63;;
72603;SDS011;60645;56.968;24.196;2022-07-04T08:08:34;3.08;;;0.73;;
72603;SDS011;60645;56.968;24.196;2022-07-04T08:11:00;2.72;;;0.70;;
72603;SDS011;60645;56.968;24.196;2022-07-04T08:13:27;1.58;;;0.60;;
72603;SDS011;60645;56.968;24.196;2022-07-04T08:15:53;1.42;;;0.65;;
72603;SDS011;60645;56.968;24.196;2022-07-04T08:18:20;2.15;;;0.70;;
72603;SDS011;60645;56.968;24.196;2022-07-04T08:20:46;2.88;;;0.80;;
72603;SDS011;60645;56.968;24.196;2022-07-04T08:23:27;2.42;;;0.70;;
72603;SDS011;60645;56.968;24.196;2022-07-04T08:25:54;1.73;;;0.60;;
72603;SDS011;60645;56.968;24.196;2022-07-04T08:28:20;1.00;;;0.40;;
72603;SDS011;60645;56.968;24.196;2022-07-04T08:30:46;2.38;;;0.93;;
72603;SDS011;60645;56.968;24.196;2022-07-04T08:33:13;1.85;;;0.70;;
72603;SDS011;60645;56.968;24.196;2022-07-04T08:35:39;4.05;;;0.45;;
72603;SDS011;60645;56.968;24.196;2022-07-04T08:38:05;1.55;;;0.57;;
72603;SDS011;60645;56.968;24.196;2022-07-04T08:40:32;1.70;;;0.75;;
72603;SDS011;60645;56.968;24.196;2022-07-04T08:43:01;2.13;;;1.00;;
72603;SDS011;60645;56.968;24.196;2022-07-04T08:45:28;3.97;;;1.05;;
72603;SDS011;60645;56.968;24.196;2022-07-04T08:48:05;3.30;;;1.00;;
72603;SDS011;60645;56.968;24.196;2022-07-04T08:50:37;1.45;;;0.82;;
72603;SDS011;60645;56.968;24.196;2022-07-04T08:53:08;1.90;;;0.60;;
72603;SDS011;60645;56.968;24.196;2022-07-04T08:55:36;3.25;;;0.90;;
72603;SDS011;60645;56.968;24.196;2022-07-04T08:58:22;2.83;;;0.70;;
72603;SDS011;60645;56.968;24.196;2022-07-04T09:00:52;2.53;;;0.68;;
72603;SDS011;60645;56.968;24.196;2022-07-04T09:03:19;3.58;;;1.08;;
72603;SDS011;60645;56.968;24.196;2022-07-04T09:05:46;2.80;;;0.82;;
72603;SDS011;60645;56.968;24.196;2022-07-04T09:08:13;2.60;;;0.73;;
72603;SDS011;60645;56.968;24.196;2022-07-04T09:10:39;2.28;;;0.80;;
72603;SDS011;60645;56.968;24.196;2022-07-04T09:13:06;2.55;;;0.90;;
72603;SDS011;60645;56.968;24.196;2022-07-04T09:15:38;3.15;;;0.68;;
72603;SDS011;60645;56.968;24.196;2022-07-04T09:18:05;2.55;;;0.70;;
72603;SDS011;60645;56.968;24.196;2022-07-04T09:20:32;2.30;;;1.20;;
72603;SDS011;60645;56.968;24.196;2022-07-04T09:22:58;3.10;;;1.30;;
72603;SDS011;60645;56.968;24.196;2022-07-04T09:25:25;4.28;;;1.23;;
72603;SDS011;60645;56.968;24.196;2022-07-04T09:27:52;5.38;;;1.23;;
72603;SDS011;60645;56.968;24.196;2022-07-04T09:30:20;3.55;;;0.93;;
72603;SDS011;60645;56.968;24.196;2022-07-04T09:35:20;3.00;;;0.80;;
72603;SDS011;60645;56.968;24.196;2022-07-04T09:37:48;2.38;;;1.00;;
72603;SDS011;60645;56.968;24.196;2022-07-04T09:40:24;3.10;;;1.10;;
72603;SDS011;60645;56.968;24.196;2022-07-04T09:42:51;3.05;;;0.68;;
72603;SDS011;60645;56.968;24.196;2022-07-04T09:45:18;3.38;;;0.90;;
72603;SDS011;60645;56.968;24.196;2022-07-04T09:47:45;2.88;;;0.80;;
72603;SDS011;60645;56.968;24.196;2022-07-04T09:50:16;3.42;;;1.00;;
72603;SDS011;60645;56.968;24.196;2022-07-04T09:55:10;3.03;;;1.05;;
72603;SDS011;60645;56.968;24.196;2022-07-04T09:57:36;2.60;;;0.95;;
72603;SDS011;60645;56.968;24.196;2022-07-04T10:00:23;1.90;;;1.10;;
72603;SDS011;60645;56.968;24.196;2022-07-04T10:02:50;2.13;;;0.65;;
72603;SDS011;60645;56.968;24.196;2022-07-04T10:05:19;1.30;;;0.68;;
72603;SDS011;60645;56.968;24.196;2022-07-04T10:07:45;3.30;;;0.75;;
72603;SDS011;60645;56.968;24.196;2022-07-04T10:10:30;1.48;;;0.63;;
72603;SDS011;60645;56.968;24.196;2022-07-04T10:12:58;1.45;;;0.75;;
72603;SDS011;60645;56.968;24.196;2022-07-04T10:15:25;3.90;;;0.60;;
72603;SDS011;60645;56.968;24.196;2022-07-04T10:17:51;1.38;;;0.75;;
72603;SDS011;60645;56.968;24.196;2022-07-04T10:20:18;3.03;;;0.63;;
72603;SDS011;60645;56.968;24.196;2022-07-04T10:22:44;3.15;;;0.47;;
72603;SDS011;60645;56.968;24.196;2022-07-04T10:25:11;1.38;;;0.50;;
72603;SDS011;60645;56.968;24.196;2022-07-04T10:27:38;1.08;;;0.52;;
72603;SDS011;60645;56.968;24.196;2022-07-04T10:30:06;1.50;;;0.60;;
72603;SDS011;60645;56.968;24.196;2022-07-04T10:32:33;3.95;;;0.63;;
72603;SDS011;60645;56.968;24.196;2022-07-04T10:35:00;3.65;;;0.85;;
72603;SDS011;60645;56.968;24.196;2022-07-04T10:37:57;1.20;;;1.10;;
72603;SDS011;60645;56.968;24.196;2022-07-04T10:40:36;1.65;;;0.52;;
72603;SDS011;60645;56.968;24.196;2022-07-04T10:42:59;4.65;;;0.80;;
72603;SDS011;60645;56.968;24.196;2022-07-04T10:45:31;2.17;;;0.63;;
72603;SDS011;60645;56.968;24.196;2022-07-04T10:47:58;1.95;;;0.70;;
72603;SDS011;60645;56.968;24.196;2022-07-04T10:50:28;1.85;;;0.93;;
72603;SDS011;60645;56.968;24.196;2022-07-04T10:53:08;2.05;;;0.70;;
72603;SDS011;60645;56.968;24.196;2022-07-04T10:55:34;2.22;;;0.60;;
72603;SDS011;60645;56.968;24.196;2022-07-04T10:58:01;1.80;;;1.00;;
72603;SDS011;60645;56.968;24.196;2022-07-04T11:00:27;2.72;;;0.90;;
72603;SDS011;60645;56.968;24.196;2022-07-04T11:02:59;1.40;;;0.70;;
72603;SDS011;60645;56.968;24.196;2022-07-04T11:05:40;3.53;;;0.63;;
72603;SDS011;60645;56.968;24.196;2022-07-04T11:08:06;1.85;;;1.00;;
72603;SDS011;60645;56.968;24.196;2022-07-04T11:10:36;2.63;;;0.90;;
72603;SDS011;60645;56.968;24.196;2022-07-04T11:13:07;3.08;;;0.77;;
72603;SDS011;60645;56.968;24.196;2022-07-04T11:18:01;1.65;;;0.80;;
72603;SDS011;60645;56.968;24.196;2022-07-04T11:20:28;1.85;;;1.20;;
72603;SDS011;60645;56.968;24.196;2022-07-04T11:25:31;5.47;;;1.95;;
72603;SDS011;60645;56.968;24.196;2022-07-04T11:27:58;3.97;;;1.90;;
72603;SDS011;60645;56.968;24.196;2022-07-04T11:31:02;2.13;;;1.70;;
72603;SDS011;60645;56.968;24.196;2022-07-04T11:33:30;5.53;;;1.65;;
72603;SDS011;60645;56.968;24.196;2022-07-04T11:36:06;2.72;;;1.58;;
72603;SDS011;60645;56.968;24.196;2022-07-04T11:38:43;3.50;;;1.13;;
72603;SDS011;60645;56.968;24.196;2022-07-04T11:41:09;3.67;;;1.70;;
72603;SDS011;60645;56.968;24.196;2022-07-04T11:43:54;3.70;;;1.40;;
72603;SDS011;60645;56.968;24.196;2022-07-04T11:46:38;2.60;;;1.25;;
72603;SDS011;60645;56.968;24.196;2022-07-04T11:49:09;2.80;;;1.33;;
72603;SDS011;60645;56.968;24.196;2022-07-04T11:51:36;2.90;;;1.20;;
72603;SDS011;60645;56.968;24.196;2022-07-04T11:54:07;5.93;;;1.77;;
72603;SDS011;60645;56.968;24.196;2022-07-04T11:57:07;4.43;;;1.75;;
72603;SDS011;60645;56.968;24.196;2022-07-04T11:59:34;5.72;;;1.67;;
72603;SDS011;60645;56.968;24.196;2022-07-04T12:02:09;3.13;;;1.38;;
72603;SDS011;60645;56.968;24.196;2022-07-04T12:04:35;4.68;;;1.35;;
72603;SDS011;60645;56.968;24.196;2022-07-04T12:07:14;4.45;;;1.30;;
72603;SDS011;60645;56.968;24.196;2022-07-04T12:09:41;3.47;;;1.65;;
72603;SDS011;60645;56.968;24.196;2022-07-04T12:12:08;3.55;;;1.77;;
72603;SDS011;60645;56.968;24.196;2022-07-04T12:14:35;4.30;;;2.90;;
72603;SDS011;60645;56.968;24.196;2022-07-04T12:19:37;5.68;;;2.50;;
72603;SDS011;60645;56.968;24.196;2022-07-04T12:22:03;4.28;;;1.75;;
72603;SDS011;60645;56.968;24.196;2022-07-04T12:24:42;5.25;;;1.75;;
72603;SDS011;60645;56.968;24.196;2022-07-04T12:27:16;2.42;;;1.65;;
72603;SDS011;60645;56.968;24.196;2022-07-04T12:29:46;3.17;;;1.52;;
72603;SDS011;60645;56.968;24.196;2022-07-04T12:32:12;2.13;;;1.30;;
72603;SDS011;60645;56.968;24.196;2022-07-04T12:34:40;5.50;;;2.42;;
72603;SDS011;60645;56.968;24.196;2022-07-04T12:37:10;3.03;;;1.45;;
72603;SDS011;60645;56.968;24.196;2022-07-04T12:39:38;4.03;;;1.90;;
72603;SDS011;60645;56.968;24.196;2022-07-04T12:44:40;4.03;;;1.50;;
72603;SDS011;60645;56.968;24.196;2022-07-04T12:47:08;4.68;;;1.25;;
72603;SDS011;60645;56.968;24.196;2022-07-04T12:49:54;3.03;;;1.40;;
72603;SDS011;60645;56.968;24.196;2022-07-04T12:52:21;5.05;;;1.65;;
72603;SDS011;60645;56.968;24.196;2022-07-04T12:55:05;7.85;;;6.07;;
72603;SDS011;60645;56.968;24.196;2022-07-04T12:57:33;11.57;;;9.63;;
72603;SDS011;60645;56.968;24.196;2022-07-04T12:59:59;10.70;;;8.52;;
72603;SDS011;60645;56.968;24.196;2022-07-04T13:02:46;7.72;;;3.95;;
72603;SDS011;60645;56.968;24.196;2022-07-04T13:05:12;6.10;;;3.08;;
72603;SDS011;60645;56.968;24.196;2022-07-04T13:07:39;5.05;;;2.50;;
72603;SDS011;60645;56.968;24.196;2022-07-04T13:10:06;4.80;;;2.15;;
72603;SDS011;60645;56.968;24.196;2022-07-04T13:12:33;3.17;;;1.80;;
72603;SDS011;60645;56.968;24.196;2022-07-04T13:14:59;3.95;;;2.10;;
72603;SDS011;60645;56.968;24.196;2022-07-04T13:17:26;3.15;;;2.00;;
72603;SDS011;60645;56.968;24.196;2022-07-04T13:19:52;5.38;;;1.67;;
72603;SDS011;60645;56.968;24.196;2022-07-04T13:22:20;3.53;;;1.75;;
72603;SDS011;60645;56.968;24.196;2022-07-04T13:24:46;2.63;;;1.85;;
72603;SDS011;60645;56.968;24.196;2022-07-04T13:27:13;3.22;;;1.30;;
72603;SDS011;60645;56.968;24.196;2022-07-04T13:29:39;2.80;;;1.70;;
72603;SDS011;60645;56.968;24.196;2022-07-04T13:32:06;5.35;;;2.15;;
72603;SDS011;60645;56.968;24.196;2022-07-04T13:34:37;4.07;;;2.17;;
72603;SDS011;60645;56.968;24.196;2022-07-04T13:37:03;3.15;;;1.77;;
72603;SDS011;60645;56.968;24.196;2022-07-04T13:39:30;4.57;;;1.30;;
72603;SDS011;60645;56.968;24.196;2022-07-04T13:42:17;3.42;;;1.77;;
72603;SDS011;60645;56.968;24.196;2022-07-04T13:45:04;4.90;;;1.75;;
72603;SDS011;60645;56.968;24.196;2022-07-04T13:47:31;3.15;;;1.25;;
72603;SDS011;60645;56.968;24.196;2022-07-04T13:49:57;3.72;;;2.47;;
72603;SDS011;60645;56.968;24.196;2022-07-04T13:52:24;5.60;;;1.40;;
72603;SDS011;60645;56.968;24.196;2022-07-04T13:54:51;2.28;;;1.33;;
72603;SDS011;60645;56.968;24.196;2022-07-04T13:57:17;3.08;;;1.80;;
72603;SDS011;60645;56.968;24.196;2022-07-04T13:59:44;3.40;;;1.25;;
72603;SDS011;60645;56.968;24.196;2022-07-04T14:02:10;4.00;;;1.60;;
72603;SDS011;60645;56.968;24.196;2022-07-04T14:04:36;3.28;;;1.40;;
72603;SDS011;60645;56.968;24.196;2022-07-04T14:07:03;2.58;;;1.35;;
72603;SDS011;60645;56.968;24.196;2022-07-04T14:09:38;4.55;;;1.45;;
72603;SDS011;60645;56.968;24.196;2022-07-04T14:12:04;3.80;;;1.55;;
72603;SDS011;60645;56.968;24.196;2022-07-04T14:14:31;6.05;;;1.95;;
72603;SDS011;60645;56.968;24.196;2022-07-04T14:16:57;3.40;;;1.45;;
72603;SDS011;60645;56.968;24.196;2022-07-04T14:19:23;4.43;;;1.38;;
72603;SDS011;60645;56.968;24.196;2022-07-04T14:21:50;2.88;;;1.00;;
72603;SDS011;60645;56.968;24.196;2022-07-04T14:24:17;3.72;;;1.42;;
72603;SDS011;60645;56.968;24.196;2022-07-04T14:26:50;4.68;;;1.67;;
72603;SDS011;60645;56.968;24.196;2022-07-04T14:29:16;3.65;;;1.77;;
72603;SDS011;60645;56.968;24.196;2022-07-04T14:31:42;9.63;;;3.80;;
72603;SDS011;60645;56.968;24.196;2022-07-04T14:34:09;6.93;;;5.85;;
72603;SDS011;60645;56.968;24.196;2022-07-04T14:36:38;5.53;;;3.00;;
72603;SDS011;60645;56.968;24.196;2022-07-04T14:39:04;3.42;;;1.90;;
72603;SDS011;60645;56.968;24.196;2022-07-04T14:41:31;2.97;;;1.63;;
72603;SDS011;60645;56.968;24.196;2022-07-04T14:43:58;4.35;;;1.52;;
72603;SDS011;60645;56.968;24.196;2022-07-04T14:46:24;4.45;;;1.38;;
72603;SDS011;60645;56.968;24.196;2022-07-04T14:48:51;4.53;;;1.55;;
72603;SDS011;60645;56.968;24.196;2022-07-04T14:51:17;5.72;;;2.08;;
72603;SDS011;60645;56.968;24.196;2022-07-04T14:53:44;3.30;;;1.67;;
72603;SDS011;60645;56.968;24.196;2022-07-04T14:56:11;3.00;;;1.45;;